createdAt,value
2022-09-05T00:00:23.819Z,21.24
2022-09-05T00:01:27.773Z,21.26
2022-09-05T00:02:24.515Z,21.24
2022-09-05T00:03:24.123Z,21.23
2022-09-05T00:04:24.416Z,21.22
2022-09-05T00:05:24.418Z,21.20
2022-09-05T00:06:25.670Z,21.20
2022-09-05T00:07:43.368Z,21.19
2022-09-05T00:08:24.767Z,21.18
2022-09-05T00:09:24.371Z,21.17
2022-09-05T00:10:23.690Z,21.16
2022-09-05T00:11:42.751Z,21.16
2022-09-05T00:12:25.606Z,21.13
2022-09-05T00:13:23.662Z,21.13
2022-09-05T00:14:34.340Z,21.12
2022-09-05T00:15:25.542Z,21.11
2022-09-05T00:16:23.731Z,21.10
2022-09-05T00:17:25.835Z,21.09
2022-09-05T00:21:33.557Z,21.07
2022-09-05T00:22:54.233Z,21.08
2022-09-05T00:24:21.999Z,21.05
2022-09-05T00:24:25.116Z,21.04
2022-09-05T00:24:33.149Z,21.03
2022-09-05T00:24:36.553Z,21.02
2022-09-05T00:24:42.339Z,21.01
2022-09-05T00:25:32.856Z,21.00
2022-09-05T00:26:25.205Z,20.99
2022-09-05T00:27:24.176Z,20.98
2022-09-05T00:28:26.136Z,20.97
2022-09-05T00:29:50.511Z,20.95
2022-09-05T00:31:07.017Z,20.94
2022-09-05T00:31:55.559Z,20.94
2022-09-05T00:32:24.571Z,20.92
2022-09-05T00:33:23.450Z,20.91
2022-09-05T00:34:23.420Z,20.91
2022-09-05T00:35:26.211Z,20.90
2022-09-05T00:36:24.087Z,20.88
2022-09-05T00:37:24.084Z,20.87
2022-09-05T00:38:23.563Z,20.86
2022-09-05T00:39:25.347Z,20.85
2022-09-05T00:40:23.447Z,20.84
2022-09-05T00:41:23.390Z,20.83
2022-09-05T00:42:24.009Z,20.82
2022-09-05T00:43:24.053Z,20.80
2022-09-05T00:44:23.990Z,20.79
2022-09-05T00:45:23.311Z,20.77
2022-09-05T00:46:23.433Z,20.76
2022-09-05T00:47:23.331Z,20.75
2022-09-05T00:48:23.951Z,20.74
2022-09-05T00:49:23.285Z,20.73
2022-09-05T00:50:23.284Z,20.71
2022-09-05T00:51:29.353Z,20.71
2022-09-05T00:52:24.414Z,20.70
2022-09-05T00:53:23.910Z,20.68
2022-09-05T00:54:32.621Z,20.66
2022-09-05T00:55:25.187Z,20.65
2022-09-05T00:56:23.254Z,20.63
2022-09-05T00:57:23.174Z,20.63
2022-09-05T00:58:23.198Z,20.60
2022-09-05T00:59:23.887Z,20.59
2022-09-05T01:00:23.160Z,20.58
2022-09-05T01:01:23.274Z,20.57
2022-09-05T01:02:23.524Z,20.56
2022-09-05T01:03:23.162Z,20.55
2022-09-05T01:04:24.039Z,20.54
2022-09-05T01:05:23.147Z,20.53
2022-09-05T01:06:23.164Z,20.51
2022-09-05T01:07:23.368Z,20.50
2022-09-05T01:08:23.076Z,20.49
2022-09-05T01:09:23.140Z,20.48
2022-09-05T01:10:24.038Z,20.47
2022-09-05T01:11:23.079Z,20.46
2022-09-05T01:12:23.689Z,20.45
2022-09-05T01:13:24.209Z,20.44
2022-09-05T01:14:25.460Z,20.43
2022-09-05T01:15:22.980Z,20.42
2022-09-05T01:16:23.086Z,20.40
2022-09-05T01:17:22.964Z,20.39
2022-09-05T01:18:23.063Z,20.38
2022-09-05T01:19:23.027Z,20.36
2022-09-05T01:20:23.371Z,20.35
2022-09-05T01:21:23.614Z,20.33
2022-09-05T01:22:22.983Z,20.33
2022-09-05T01:23:22.936Z,20.31
2022-09-05T01:24:27.600Z,20.29
2022-09-05T01:25:22.987Z,20.28
2022-09-05T01:26:23.555Z,20.27
2022-09-05T01:27:22.925Z,20.25
2022-09-05T01:29:17.164Z,20.23
2022-09-05T01:29:25.787Z,20.22
2022-09-05T01:30:23.763Z,20.21
2022-09-05T01:31:23.904Z,20.20
2022-09-05T01:32:22.798Z,20.18
2022-09-05T01:33:22.837Z,20.17
2022-09-05T01:34:31.567Z,20.15
2022-09-05T01:35:23.790Z,20.14
2022-09-05T01:36:22.998Z,20.13
2022-09-05T01:37:26.667Z,20.12
2022-09-05T01:38:23.766Z,20.11
2022-09-05T01:40:10.460Z,20.10
2022-09-05T01:40:25.711Z,20.09
2022-09-05T01:41:22.922Z,20.08
2022-09-05T01:42:22.971Z,20.07
2022-09-05T01:43:23.448Z,20.06
2022-09-05T01:44:23.349Z,20.04
2022-09-05T01:45:29.065Z,20.04
2022-09-05T01:46:23.672Z,20.02
2022-09-05T01:47:28.427Z,20.01
2022-09-05T01:48:23.704Z,20.00
2022-09-05T01:49:22.651Z,19.99
2022-09-05T01:50:22.632Z,19.98
2022-09-05T01:51:29.368Z,19.96
2022-09-05T01:52:23.612Z,19.94
2022-09-05T01:53:22.669Z,19.94
2022-09-05T01:54:24.345Z,19.92
2022-09-05T01:55:22.563Z,19.91
2022-09-05T01:56:23.223Z,19.89
2022-09-05T01:57:22.613Z,19.88
2022-09-05T01:58:22.559Z,19.87
2022-09-05T01:59:22.585Z,19.86
2022-09-05T02:00:22.644Z,19.85
2022-09-05T02:01:31.759Z,19.85
2022-09-05T02:02:25.544Z,19.84
2022-09-05T02:03:22.585Z,19.84
2022-09-05T02:04:22.446Z,19.84
2022-09-05T02:05:48.898Z,19.84
2022-09-05T02:06:25.476Z,19.83
2022-09-05T02:07:30.874Z,19.83
2022-09-05T02:08:23.393Z,19.83
2022-09-05T02:09:23.078Z,19.83
2022-09-05T02:10:22.376Z,19.83
2022-09-05T02:11:35.360Z,19.83
2022-09-05T02:12:25.341Z,19.84
2022-09-05T02:13:23.124Z,19.85
2022-09-05T02:14:28.796Z,19.85
2022-09-05T02:15:24.007Z,19.85
2022-09-05T02:16:23.044Z,19.85
2022-09-05T02:17:27.270Z,19.85
2022-09-05T02:18:23.329Z,19.85
2022-09-05T02:19:22.964Z,19.85
2022-09-05T02:20:23.429Z,19.86
2022-09-05T02:21:22.951Z,19.86
2022-09-05T02:22:22.251Z,19.87
2022-09-05T02:23:40.859Z,19.87
2022-09-05T02:24:25.689Z,19.87
2022-09-05T02:25:22.211Z,19.88
2022-09-05T02:26:23.223Z,19.89
2022-09-05T02:27:31.669Z,19.88
2022-09-05T02:28:23.205Z,19.89
2022-09-05T02:29:29.206Z,19.90
2022-09-05T02:30:24.823Z,19.90
2022-09-05T02:31:22.881Z,19.92
2022-09-05T02:32:22.823Z,19.93
2022-09-05T02:33:22.878Z,19.94
2022-09-05T02:34:22.124Z,19.96
2022-09-05T02:35:22.126Z,19.98
2022-09-05T02:36:22.855Z,19.99
2022-09-05T02:38:00.454Z,20.00
2022-09-05T02:42:00.180Z,20.03
2022-09-05T02:45:03.448Z,20.04
2022-09-05T02:45:03.838Z,20.05
2022-09-05T02:45:10.437Z,20.07
2022-09-05T02:45:15.041Z,20.07
2022-09-05T02:45:17.416Z,20.09
2022-09-05T02:45:17.951Z,20.08
2022-09-05T02:45:26.726Z,20.09
2022-09-05T02:46:22.770Z,20.10
2022-09-05T02:47:23.430Z,20.09
2022-09-05T02:48:22.649Z,20.10
2022-09-05T02:51:06.908Z,20.11
2022-09-05T02:54:19.199Z,20.10
2022-09-05T02:57:23.068Z,20.12
2022-09-05T02:57:26.264Z,20.11
2022-09-05T02:57:34.040Z,20.11
2022-09-05T02:57:36.374Z,20.12
2022-09-05T02:57:41.754Z,20.12
2022-09-05T02:58:05.566Z,20.11
2022-09-05T02:58:06.682Z,20.12
2022-09-05T02:58:24.931Z,20.11
2022-09-05T02:59:36.461Z,20.11
2022-09-05T03:00:22.840Z,20.10
2022-09-05T03:01:22.576Z,20.09
2022-09-05T03:02:25.512Z,20.07
2022-09-05T03:03:22.509Z,20.06
2022-09-05T03:04:21.831Z,20.04
2022-09-05T03:05:21.786Z,20.03
2022-09-05T03:06:26.011Z,20.02
2022-09-05T03:07:22.772Z,20.00
2022-09-05T03:08:22.539Z,19.99
2022-09-05T03:09:22.434Z,19.97
2022-09-05T03:10:32.284Z,19.96
2022-09-05T03:11:22.715Z,19.94
2022-09-05T03:12:29.529Z,19.93
2022-09-05T03:13:22.697Z,19.91
2022-09-05T03:14:21.736Z,19.90
2022-09-05T03:15:23.341Z,19.89
2022-09-05T03:16:22.378Z,19.86
2022-09-05T03:17:22.328Z,19.86
2022-09-05T03:18:21.718Z,19.84
2022-09-05T03:19:21.644Z,19.82
2022-09-05T03:20:21.629Z,19.81
2022-09-05T03:21:21.659Z,19.80
2022-09-05T03:22:22.528Z,19.79
2022-09-05T03:23:24.523Z,19.78
2022-09-05T03:24:22.278Z,19.77
2022-09-05T03:25:21.577Z,19.75
2022-09-05T03:26:21.599Z,19.74
2022-09-05T03:27:22.317Z,19.74
2022-09-05T03:28:23.421Z,19.73
2022-09-05T03:29:21.535Z,19.72
2022-09-05T03:30:21.559Z,19.72
2022-09-05T03:31:22.443Z,19.71
2022-09-05T03:32:22.172Z,19.71
2022-09-05T03:33:22.161Z,19.70
2022-09-05T03:34:21.651Z,19.70
2022-09-05T03:35:23.400Z,19.69
2022-09-05T03:36:22.122Z,19.69
2022-09-05T03:37:22.113Z,19.68
2022-09-05T03:38:21.549Z,19.67
2022-09-05T03:39:21.460Z,19.67
2022-09-05T03:40:22.085Z,19.67
2022-09-05T03:41:21.385Z,19.67
2022-09-05T03:42:22.065Z,19.67
2022-09-05T03:43:21.419Z,19.67
2022-09-05T03:44:21.365Z,19.66
2022-09-05T03:45:36.778Z,19.67
2022-09-05T03:46:22.437Z,19.65
2022-09-05T03:47:22.008Z,19.64
2022-09-05T03:48:24.698Z,19.62
2022-09-05T03:51:09.278Z,19.62
2022-09-05T03:57:04.646Z,19.61
2022-09-05T03:57:08.512Z,19.59
2022-09-05T03:57:08.679Z,19.58
2022-09-05T03:57:15.590Z,19.56
2022-09-05T03:57:20.724Z,19.55
2022-09-05T03:57:22.452Z,19.52
2022-09-05T03:57:27.284Z,19.54
2022-09-05T03:57:42.296Z,19.50
2022-09-05T03:58:31.817Z,19.49
2022-09-05T03:59:22.294Z,19.48
2022-09-05T04:00:21.900Z,19.46
2022-09-05T04:02:15.233Z,19.45
2022-09-05T04:06:02.578Z,19.44
2022-09-05T04:08:10.189Z,19.43
2022-09-05T04:08:14.319Z,19.41
2022-09-05T04:08:18.262Z,19.40
2022-09-05T04:08:19.115Z,19.38
2022-09-05T04:08:26.895Z,19.38
2022-09-05T04:08:34.447Z,19.35
2022-09-05T04:09:48.905Z,19.33
2022-09-05T04:10:22.201Z,19.31
2022-09-05T04:11:21.070Z,19.31
2022-09-05T04:12:21.748Z,19.29
2022-09-05T04:13:21.035Z,19.28
2022-09-05T04:14:21.714Z,19.27
2022-09-05T04:15:21.039Z,19.26
2022-09-05T04:16:21.706Z,19.25
2022-09-05T04:17:21.037Z,19.25
2022-09-05T04:18:32.615Z,19.23
2022-09-05T04:19:22.018Z,19.25
2022-09-05T04:20:20.995Z,19.23
2022-09-05T04:21:20.975Z,19.23
2022-09-05T04:22:21.629Z,19.23
2022-09-05T04:23:23.580Z,19.23
2022-09-05T04:24:21.607Z,19.24
2022-09-05T04:25:21.595Z,19.23
2022-09-05T04:26:20.898Z,19.23
2022-09-05T04:27:20.878Z,19.23
2022-09-05T04:28:21.908Z,19.23
2022-09-05T04:29:21.549Z,19.21
2022-09-05T04:30:39.007Z,19.20
2022-09-05T04:31:23.787Z,19.19
2022-09-05T04:32:21.584Z,19.19
2022-09-05T04:33:22.286Z,19.17
2022-09-05T04:34:22.473Z,19.15
2022-09-05T04:35:21.479Z,19.14
2022-09-05T04:36:21.470Z,19.11
2022-09-05T04:37:21.461Z,19.10
2022-09-05T04:38:20.852Z,19.08
2022-09-05T04:39:20.867Z,19.08
2022-09-05T04:40:20.771Z,19.06
2022-09-05T04:41:39.331Z,19.04
2022-09-05T04:42:21.732Z,19.04
2022-09-05T04:43:21.400Z,19.03
2022-09-05T04:44:20.727Z,19.02
2022-09-05T04:45:24.120Z,19.01
2022-09-05T04:46:21.489Z,19.00
2022-09-05T04:47:21.664Z,19.00
2022-09-05T04:48:22.160Z,19.00
2022-09-05T04:49:24.350Z,19.00
2022-09-05T04:50:23.390Z,19.00
2022-09-05T04:51:20.656Z,19.01
2022-09-05T04:52:30.866Z,19.01
2022-09-05T04:53:21.608Z,19.02
2022-09-05T04:54:20.615Z,19.03
2022-09-05T04:55:21.271Z,19.04
2022-09-05T04:56:20.599Z,19.04
2022-09-05T04:57:20.596Z,19.06
2022-09-05T04:58:20.606Z,19.06
2022-09-05T05:04:02.321Z,19.07
2022-09-05T05:06:04.358Z,19.09
2022-09-05T05:06:04.826Z,19.10
2022-09-05T05:06:10.665Z,19.11
2022-09-05T05:06:14.074Z,19.18
2022-09-05T05:06:16.674Z,19.16
2022-09-05T05:06:18.515Z,19.13
2022-09-05T05:06:35.128Z,19.20
2022-09-05T05:07:22.219Z,19.22
2022-09-05T05:08:28.843Z,19.25
2022-09-05T05:09:22.101Z,19.28
2022-09-05T05:13:56.921Z,19.31
2022-09-05T05:17:53.919Z,19.38
2022-09-05T05:17:54.907Z,19.40
2022-09-05T05:17:57.528Z,19.43
2022-09-05T05:17:57.708Z,19.46
2022-09-05T05:18:00.143Z,19.34
2022-09-05T05:18:09.601Z,19.50
2022-09-05T05:18:13.106Z,19.48
2022-09-05T05:18:42.414Z,19.53
2022-09-05T05:19:22.596Z,19.55
2022-09-05T05:20:43.025Z,19.58
2022-09-05T05:21:21.997Z,19.62
2022-09-05T05:22:20.991Z,19.64
2022-09-05T05:23:20.425Z,19.67
2022-09-05T05:24:21.724Z,19.70
2022-09-05T05:25:20.303Z,19.72
2022-09-05T05:26:20.934Z,19.77
2022-09-05T05:27:20.402Z,19.80
2022-09-05T05:28:24.124Z,19.83
2022-09-05T05:29:22.188Z,19.85
2022-09-05T05:30:20.244Z,19.88
2022-09-05T05:31:20.273Z,19.92
2022-09-05T05:32:24.921Z,19.99
2022-09-05T05:33:23.146Z,20.03
2022-09-05T05:34:24.059Z,20.08
2022-09-05T05:35:20.856Z,20.14
2022-09-05T05:36:20.167Z,20.23
2022-09-05T05:37:20.194Z,20.38
2022-09-05T05:38:20.833Z,20.60
2022-09-05T05:39:20.926Z,20.86
2022-09-05T05:40:20.122Z,21.10
2022-09-05T05:41:20.779Z,21.35
2022-09-05T05:42:21.523Z,21.67
2022-09-05T05:43:20.769Z,22.05
2022-09-05T05:44:20.070Z,22.41
2022-09-05T05:45:20.730Z,22.74
2022-09-05T05:46:20.210Z,22.93
2022-09-05T05:47:28.296Z,22.98
2022-09-05T05:48:23.912Z,23.00
2022-09-05T05:49:20.022Z,23.04
2022-09-05T05:50:20.001Z,23.05
2022-09-05T05:51:20.035Z,23.08
2022-09-05T05:52:20.984Z,23.21
2022-09-05T05:53:31.970Z,23.36
2022-09-05T05:54:22.892Z,23.34
2022-09-05T05:55:51.982Z,23.23
2022-09-05T05:56:21.613Z,23.20
2022-09-05T05:57:20.616Z,23.12
2022-09-05T05:58:19.911Z,23.05
2022-09-05T05:59:24.037Z,23.09
2022-09-05T06:00:27.624Z,23.20
2022-09-05T06:01:37.617Z,23.22
2022-09-05T06:02:21.626Z,23.22
2022-09-05T06:03:26.977Z,23.23
2022-09-05T06:04:22.788Z,23.23
2022-09-05T06:05:20.525Z,23.21
2022-09-05T06:06:20.514Z,23.28
2022-09-05T06:07:19.817Z,23.41
2022-09-05T06:09:42.161Z,23.44
2022-09-05T06:14:51.850Z,23.56
2022-09-05T06:14:52.832Z,23.47
2022-09-05T06:14:57.363Z,23.68
2022-09-05T06:15:01.461Z,23.75
2022-09-05T06:15:02.365Z,23.86
2022-09-05T06:15:06.062Z,23.81
2022-09-05T06:15:23.210Z,23.98
2022-09-05T06:16:19.829Z,24.22
2022-09-05T06:17:19.994Z,24.36
2022-09-05T06:18:21.382Z,24.24
2022-09-05T06:19:19.762Z,24.16
2022-09-05T06:22:07.341Z,24.28
2022-09-05T06:22:11.589Z,24.19
2022-09-05T06:22:21.749Z,24.47
2022-09-05T06:23:32.242Z,24.59
2022-09-05T06:24:22.686Z,24.64
2022-09-05T06:25:19.647Z,24.68
2022-09-05T06:26:20.302Z,24.90
2022-09-05T06:27:20.303Z,25.00
2022-09-05T06:28:20.172Z,25.09
2022-09-05T06:29:20.263Z,25.10
2022-09-05T06:30:20.349Z,25.14
2022-09-05T06:31:30.441Z,25.30
2022-09-05T06:32:22.485Z,25.21
2022-09-05T06:33:20.253Z,25.09
2022-09-05T06:34:33.155Z,25.01
2022-09-05T06:35:20.887Z,25.30
2022-09-05T06:36:20.195Z,25.21
2022-09-05T06:37:19.577Z,25.08
2022-09-05T06:38:20.177Z,25.07
2022-09-05T06:39:19.478Z,25.47
2022-09-05T06:40:20.155Z,25.94
2022-09-05T06:41:20.156Z,26.65
2022-09-05T06:42:42.621Z,27.15
2022-09-05T06:43:20.480Z,27.50
2022-09-05T06:44:20.098Z,28.20
2022-09-05T06:45:27.972Z,28.76
2022-09-05T06:46:54.602Z,28.88
2022-09-05T06:47:33.655Z,28.99
2022-09-05T06:48:23.840Z,29.38
2022-09-05T06:49:30.303Z,29.12
2022-09-05T06:50:27.134Z,29.01
2022-09-05T06:51:22.280Z,29.76
2022-09-05T06:52:27.780Z,30.33
2022-09-05T06:53:21.251Z,30.96
2022-09-05T06:54:19.997Z,31.55
2022-09-05T06:55:19.351Z,31.92
2022-09-05T06:56:26.091Z,32.11
2022-09-05T06:57:20.315Z,32.30
2022-09-05T06:58:19.952Z,31.51
2022-09-05T06:59:19.944Z,30.97
2022-09-05T07:00:22.179Z,30.62
2022-09-05T07:01:19.329Z,30.42
2022-09-05T07:02:58.725Z,31.20
2022-09-05T07:03:22.941Z,31.01
2022-09-05T07:04:33.380Z,31.50
2022-09-05T07:05:36.983Z,32.01
2022-09-05T07:06:22.097Z,31.83
2022-09-05T07:07:19.173Z,32.00
2022-09-05T07:08:35.362Z,32.08
2022-09-05T07:09:22.626Z,32.73
2022-09-05T07:10:37.962Z,32.73
2022-09-05T07:11:22.983Z,33.12
2022-09-05T07:12:19.126Z,33.14
2022-09-05T07:13:19.844Z,33.13
2022-09-05T07:14:19.770Z,33.03
2022-09-05T07:15:19.759Z,33.27
2022-09-05T07:16:37.001Z,32.96
2022-09-05T07:17:20.064Z,32.37
2022-09-05T07:18:19.739Z,32.43
2022-09-05T07:19:19.733Z,32.86
2022-09-05T07:20:22.019Z,33.45
2022-09-05T07:21:26.475Z,33.81
2022-09-05T07:22:48.166Z,34.11
2022-09-05T07:23:52.695Z,33.25
2022-09-05T07:24:39.084Z,32.53
2022-09-05T07:25:19.973Z,31.96
2022-09-05T07:26:51.393Z,31.42
2022-09-05T07:27:25.437Z,30.93
2022-09-05T07:28:28.861Z,30.55
2022-09-05T07:29:20.622Z,30.24
2022-09-05T07:30:18.935Z,29.99
2022-09-05T07:31:27.431Z,29.76
2022-09-05T07:32:24.453Z,29.75
2022-09-05T07:33:19.118Z,30.31
2022-09-05T07:34:21.310Z,30.10
2022-09-05T07:35:21.219Z,29.94
2022-09-05T07:36:18.867Z,29.79
2022-09-05T07:37:18.871Z,29.74
2022-09-05T07:38:19.527Z,29.91
2022-09-05T07:39:28.738Z,29.98
2022-09-05T07:40:27.338Z,30.22
2022-09-05T07:41:20.489Z,30.45
2022-09-05T07:42:18.810Z,30.81
2022-09-05T07:43:19.471Z,31.75
2022-09-05T07:44:18.786Z,32.90
2022-09-05T07:45:19.549Z,33.84
2022-09-05T07:46:18.816Z,34.67
2022-09-05T07:47:18.751Z,35.45
2022-09-05T07:48:18.752Z,36.18
2022-09-05T07:49:18.762Z,36.79
2022-09-05T07:52:43.116Z,37.35
2022-09-05T07:56:50.042Z,38.27
2022-09-05T07:56:55.975Z,39.52
2022-09-05T07:56:56.232Z,37.86
2022-09-05T07:57:00.914Z,38.88
2022-09-05T07:57:03.719Z,38.59
2022-09-05T07:57:08.985Z,39.19
2022-09-05T07:57:30.835Z,39.88
2022-09-05T07:58:21.595Z,40.19
2022-09-05T07:59:19.307Z,40.43
2022-09-05T08:00:25.914Z,40.63
2022-09-05T08:01:21.050Z,40.81
2022-09-05T08:02:18.588Z,40.96
2022-09-05T08:03:18.681Z,41.05
2022-09-05T08:04:18.589Z,41.14
2022-09-05T08:05:21.551Z,41.29
2022-09-05T08:06:32.290Z,41.46
2022-09-05T08:07:48.802Z,41.62
2022-09-05T08:08:22.986Z,41.74
2022-09-05T08:10:06.527Z,41.83
2022-09-05T08:10:20.754Z,41.92
2022-09-05T08:11:23.887Z,42.09
2022-09-05T08:12:27.784Z,42.29
2022-09-05T08:13:23.723Z,42.45
2022-09-05T08:14:40.694Z,42.62
2022-09-05T08:15:19.543Z,42.75
2022-09-05T08:16:19.544Z,42.83
2022-09-05T08:17:19.114Z,42.88
2022-09-05T08:18:19.111Z,42.91
2022-09-05T08:19:19.095Z,43.04
2022-09-05T08:20:19.095Z,43.22
2022-09-05T08:21:19.079Z,43.30
2022-09-05T08:22:20.055Z,43.38
2022-09-05T08:23:18.406Z,43.55
2022-09-05T08:24:19.035Z,43.75
2022-09-05T08:25:19.099Z,43.87
2022-09-05T08:26:19.007Z,44.02
2022-09-05T08:27:19.008Z,44.13
2022-09-05T08:28:18.998Z,44.21
2022-09-05T08:29:18.319Z,44.29
2022-09-05T08:30:26.035Z,44.34
2022-09-05T08:31:20.768Z,44.20
2022-09-05T08:32:18.978Z,44.20
2022-09-05T08:33:18.945Z,44.06
2022-09-05T08:34:18.254Z,43.99
2022-09-05T08:35:20.181Z,43.95
2022-09-05T08:36:18.922Z,43.86
2022-09-05T08:37:21.663Z,43.74
2022-09-05T08:38:18.915Z,43.59
2022-09-05T08:39:19.658Z,43.49
2022-09-05T08:40:18.231Z,43.47
2022-09-05T08:41:18.874Z,43.47
2022-09-05T08:42:19.843Z,43.45
2022-09-05T08:46:39.282Z,43.39
2022-09-05T08:46:43.161Z,42.96
2022-09-05T08:46:44.798Z,43.18
2022-09-05T08:46:46.698Z,42.81
2022-09-05T08:47:19.851Z,42.65
2022-09-05T08:48:18.146Z,42.60
2022-09-05T08:49:32.339Z,42.56
2022-09-05T08:50:20.597Z,42.59
2022-09-05T08:51:21.008Z,42.55
2022-09-05T08:52:18.781Z,42.54
2022-09-05T08:53:45.848Z,42.44
2022-09-05T08:54:19.089Z,42.33
2022-09-05T08:55:19.904Z,42.32
2022-09-05T08:56:20.442Z,42.35
2022-09-05T08:57:18.727Z,42.31
2022-09-05T08:58:18.045Z,42.18
2022-09-05T08:59:31.713Z,41.97
2022-09-05T09:00:24.600Z,41.77
2022-09-05T09:01:19.034Z,41.60
2022-09-05T09:02:47.868Z,41.46
2022-09-05T09:03:21.076Z,41.40
2022-09-05T09:04:18.633Z,41.32
2022-09-05T09:05:20.388Z,41.31
2022-09-05T09:06:18.608Z,41.16
2022-09-05T09:07:48.027Z,41.04
2022-09-05T09:08:22.586Z,40.98
2022-09-05T09:09:17.886Z,40.97
2022-09-05T09:10:25.568Z,40.95
2022-09-05T09:11:19.148Z,40.95
2022-09-05T09:12:18.548Z,40.91
2022-09-05T09:13:18.550Z,40.74
2022-09-05T09:14:30.179Z,40.52
2022-09-05T09:15:19.524Z,40.34
2022-09-05T09:16:19.857Z,40.23
2022-09-05T09:17:18.578Z,40.17
2022-09-05T09:18:18.526Z,40.21
2022-09-05T09:19:18.478Z,40.27
2022-09-05T09:20:19.463Z,40.33
2022-09-05T09:21:17.770Z,40.31
2022-09-05T09:22:18.461Z,40.26
2022-09-05T09:23:32.305Z,40.17
2022-09-05T09:24:18.766Z,40.08
2022-09-05T09:25:20.085Z,39.97
2022-09-05T09:26:17.731Z,39.90
2022-09-05T09:27:19.089Z,39.91
2022-09-05T09:28:49.385Z,39.96
2022-09-05T09:29:21.143Z,40.00
2022-09-05T09:30:18.363Z,40.07
2022-09-05T09:31:17.821Z,40.08
2022-09-05T09:32:18.373Z,40.08
2022-09-05T09:33:17.662Z,40.04
2022-09-05T09:34:17.746Z,40.01
2022-09-05T09:35:17.624Z,39.97
2022-09-05T09:36:18.304Z,39.96
2022-09-05T09:37:19.880Z,39.97
2022-09-05T09:38:19.590Z,40.00
2022-09-05T09:39:38.183Z,40.02
2022-09-05T09:40:20.588Z,40.00
2022-09-05T09:41:17.615Z,39.99
2022-09-05T09:42:32.685Z,40.02
2022-09-05T09:43:18.557Z,40.02
2022-09-05T09:44:19.420Z,40.02
2022-09-05T09:45:27.542Z,40.04
2022-09-05T09:46:20.529Z,40.08
2022-09-05T09:47:18.078Z,40.13
2022-09-05T09:48:17.520Z,40.18
2022-09-05T09:49:22.471Z,40.13
2022-09-05T09:50:20.411Z,40.00
2022-09-05T09:51:17.482Z,39.86
2022-09-05T09:52:19.591Z,39.74
2022-09-05T09:53:17.480Z,39.65
2022-09-05T09:54:17.438Z,39.63
2022-09-05T09:55:21.293Z,39.64
2022-09-05T09:56:18.101Z,39.54
2022-09-05T09:57:17.451Z,39.52
2022-09-05T09:58:18.092Z,39.49
2022-09-05T09:59:18.078Z,39.45
2022-09-05T10:00:18.098Z,39.43
2022-09-05T10:01:35.461Z,39.41
2022-09-05T10:03:36.348Z,39.40
2022-09-05T10:07:31.807Z,39.38
2022-09-05T10:10:35.840Z,39.40
2022-09-05T10:10:40.208Z,39.50
2022-09-05T10:10:47.756Z,39.61
2022-09-05T10:10:48.638Z,39.83
2022-09-05T10:10:49.591Z,40.13
2022-09-05T10:10:51.895Z,39.71
2022-09-05T10:10:52.608Z,39.95
2022-09-05T10:11:52.910Z,40.31
2022-09-05T10:12:18.452Z,40.47
2022-09-05T10:13:17.927Z,40.54
2022-09-05T10:14:35.429Z,40.56
2022-09-05T10:15:30.297Z,40.55
2022-09-05T10:16:18.244Z,40.64
2022-09-05T10:17:17.930Z,40.83
2022-09-05T10:18:17.880Z,41.03
2022-09-05T10:19:18.004Z,41.23
2022-09-05T10:20:17.865Z,41.39
2022-09-05T10:21:17.754Z,41.47
2022-09-05T10:23:18.827Z,41.71
2022-09-05T10:24:18.607Z,41.84
2022-09-05T10:25:19.432Z,41.88
2022-09-05T10:26:17.129Z,41.91
2022-09-05T10:27:17.800Z,41.94
2022-09-05T10:28:17.780Z,41.87
2022-09-05T10:29:37.499Z,41.81
2022-09-05T10:30:19.806Z,41.74
2022-09-05T10:32:53.646Z,41.60
2022-09-05T10:35:06.038Z,41.30
2022-09-05T10:35:08.774Z,40.75
2022-09-05T10:35:14.710Z,40.08
2022-09-05T10:35:23.769Z,39.33
2022-09-05T10:36:18.061Z,38.67
2022-09-05T10:37:18.264Z,38.11
2022-09-05T10:38:17.661Z,37.61
2022-09-05T10:39:17.662Z,37.13
2022-09-05T10:40:17.654Z,36.73
2022-09-05T10:41:22.511Z,36.43
2022-09-05T10:42:17.943Z,36.20
2022-09-05T10:43:16.943Z,35.98
2022-09-05T10:44:16.965Z,35.76
2022-09-05T10:45:17.593Z,35.60
2022-09-05T10:46:46.675Z,35.43
2022-09-05T10:47:19.709Z,35.30
2022-09-05T10:48:17.573Z,35.17
2022-09-05T10:49:17.559Z,35.04
2022-09-05T10:50:17.616Z,34.93
2022-09-05T10:51:27.086Z,34.83
2022-09-05T10:52:19.901Z,34.75
2022-09-05T10:53:17.507Z,34.68
2022-09-05T10:54:16.846Z,34.63
2022-09-05T10:55:17.539Z,34.56
2022-09-05T10:56:17.577Z,34.46
2022-09-05T10:57:17.469Z,34.38
2022-09-05T10:58:22.088Z,34.29
2022-09-05T11:02:22.308Z,34.02
2022-09-05T11:02:22.589Z,34.18
2022-09-05T11:02:29.184Z,34.11
2022-09-05T11:02:33.567Z,33.94
2022-09-05T11:03:22.689Z,33.86
2022-09-05T11:04:16.856Z,33.80
2022-09-05T11:05:17.481Z,33.72
2022-09-05T11:06:17.388Z,33.66
2022-09-05T11:07:18.363Z,33.60
2022-09-05T11:08:18.359Z,33.54
2022-09-05T11:09:17.347Z,33.49
2022-09-05T11:10:17.336Z,33.46
2022-09-05T11:11:28.624Z,33.43
2022-09-05T11:12:17.634Z,33.42
2022-09-05T11:13:16.647Z,33.42
2022-09-05T11:14:26.528Z,33.43
2022-09-05T11:15:17.626Z,33.42
2022-09-05T11:16:17.334Z,33.42
2022-09-05T11:17:17.257Z,33.42
2022-09-05T11:18:16.607Z,33.40
2022-09-05T11:19:17.325Z,33.40
2022-09-05T11:20:22.333Z,33.38
2022-09-05T11:21:18.240Z,33.36
2022-09-05T11:22:23.946Z,33.33
2022-09-05T11:23:17.520Z,33.29
2022-09-05T11:24:17.200Z,33.23
2022-09-05T11:25:17.189Z,33.17
2022-09-05T11:26:17.173Z,33.12
2022-09-05T11:27:24.843Z,33.07
2022-09-05T11:28:17.468Z,33.01
2022-09-05T11:29:17.141Z,32.96
2022-09-05T11:30:28.649Z,32.92
2022-09-05T11:31:18.959Z,32.90
2022-09-05T11:36:21.582Z,32.94
2022-09-05T11:39:46.916Z,33.05
2022-09-05T11:39:49.150Z,33.01
2022-09-05T11:39:56.163Z,33.17
2022-09-05T11:40:01.996Z,33.10
2022-09-05T11:40:04.352Z,33.23
2022-09-05T11:40:05.510Z,33.30
2022-09-05T11:40:26.325Z,33.39
2022-09-05T11:40:29.946Z,33.48
2022-09-05T11:41:18.611Z,33.59
2022-09-05T11:42:16.486Z,33.71
2022-09-05T11:43:17.038Z,33.80
2022-09-05T11:44:26.082Z,33.88
2022-09-05T11:45:17.288Z,33.96
2022-09-05T11:46:17.031Z,34.03
2022-09-05T11:47:30.113Z,34.08
2022-09-05T11:48:19.235Z,34.18
2022-09-05T11:49:16.454Z,34.28
2022-09-05T11:50:16.250Z,34.37
2022-09-05T11:51:16.935Z,34.49
2022-09-05T11:52:16.910Z,34.63
2022-09-05T11:53:16.221Z,34.78
2022-09-05T11:54:16.285Z,34.90
2022-09-05T11:55:20.950Z,34.98
2022-09-05T11:56:17.871Z,35.03
2022-09-05T11:57:33.771Z,35.02
2022-09-05T11:58:43.648Z,35.08
2022-09-05T11:59:33.060Z,35.11
2022-09-05T12:00:33.868Z,35.15
2022-09-05T12:01:41.679Z,35.16
2022-09-05T12:02:23.856Z,35.20
2022-09-05T12:03:58.083Z,35.23
2022-09-05T12:04:18.545Z,35.26
2022-09-05T12:05:49.774Z,35.28
2022-09-05T12:06:17.795Z,35.28
2022-09-05T12:07:30.134Z,35.29
2022-09-05T12:08:18.006Z,35.29
2022-09-05T12:09:20.338Z,35.27
2022-09-05T12:10:46.675Z,35.29
2022-09-05T12:11:17.711Z,35.33
2022-09-05T12:12:29.979Z,35.38
2022-09-05T12:13:17.709Z,35.40
2022-09-05T12:14:21.636Z,35.38
2022-09-05T12:15:18.948Z,35.35
2022-09-05T12:16:16.081Z,35.32
2022-09-05T12:17:16.831Z,35.31
2022-09-05T12:18:19.554Z,35.31
2022-09-05T12:19:18.993Z,35.31
2022-09-05T12:20:17.080Z,35.27
2022-09-05T12:22:23.553Z,35.15
2022-09-05T12:23:31.144Z,35.15
2022-09-05T12:25:16.511Z,35.14
2022-09-05T12:25:27.072Z,35.10
2022-09-05T12:27:38.104Z,35.09
2022-09-05T12:27:41.954Z,35.08
2022-09-05T12:29:27.658Z,35.00
2022-09-05T12:29:27.810Z,35.03
2022-09-05T12:30:16.836Z,34.96
2022-09-05T12:32:31.158Z,34.91
2022-09-05T12:33:30.249Z,34.92
2022-09-05T12:36:04.420Z,34.94
2022-09-05T12:36:05.916Z,34.95
2022-09-05T12:36:10.009Z,34.95
2022-09-05T12:40:28.680Z,34.94
2022-09-05T12:40:55.264Z,34.86
2022-09-05T12:40:56.521Z,34.92
2022-09-05T12:40:58.275Z,34.76
2022-09-05T12:41:33.332Z,34.74
2022-09-05T12:41:41.391Z,35.21
2022-09-05T12:41:44.588Z,34.70
2022-09-05T12:42:24.068Z,34.66
2022-09-05T12:44:41.235Z,34.56
2022-09-05T12:44:45.533Z,34.63
2022-09-05T12:45:17.476Z,34.52
2022-09-05T12:46:23.874Z,34.47
2022-09-05T12:47:20.118Z,34.39
2022-09-05T12:48:15.663Z,34.36
2022-09-05T12:49:15.853Z,34.35
2022-09-05T12:50:16.488Z,34.28
2022-09-05T12:51:18.106Z,34.19
2022-09-05T12:52:18.055Z,34.11
2022-09-05T12:53:16.271Z,34.03